Buck Creek, Indiana
Current Conditions -  °F | °C
As of 10:54 AM on Wednesday 26 Nov 2014 (Local Time) from KLAF Reporting Station
Overcast Overcast  
Wind Chill: -8°   Ceiling: 1600
Heat Index: -3°   Visibility: 10mi
Dew Point: -7°   Wind: 7mph
Humidity: 78%   Direction: 90°E
Pressure: 30.15"   Gusts: NA
Location:  40.49°N, 86.76°W
Report Text: KLAF 261554Z 09006KT 10SM OVC016 M03/M07 A3015 RMK AO2 SNB16E37 SLP218 P0000 T10331067
Loading
Personal Weather Stations






























Interactive Weather Map New forecast layout! Learn more

10-Day Weather Forecast

Advertisements
Track Severe Weather on mobile